Time;durP1;ratioP1;P1;durP2;ratioP2;P2;SDS_P1;SDS_P2;PMS_P1;PMS_P2;Temp;Humidity;BMP_temperature;BMP_pressure;BME280_temperature;BME280_humidity;BME280_pressure;Samples;Min_cycle;Max_cycle;Signal;HPM_P1;HPM_P2
2021/08/23 04:17:16;;;;;;;10.45;4.55;;;;;;;14.30;100.00;99169.97;5146256;23;20047;-76
2021/08/23 04:19:41;;;;;;;6.60;4.55;;;;;;;14.29;100.00;99165.66;4995088;28;20387;-76
2021/08/23 04:22:06;;;;;;;13.43;4.63;;;;;;;14.26;100.00;99177.03;4977417;28;20033;-76
2021/08/23 04:24:32;;;;;;;8.40;4.78;;;;;;;14.35;100.00;99173.31;4995204;28;20057;-76
2021/08/23 04:26:57;;;;;;;9.30;4.35;;;;;;;14.35;100.00;99173.31;4994954;28;20451;-76
2021/08/23 04:29:22;;;;;;;8.93;4.70;;;;;;;14.33;100.00;99175.13;5008079;23;20043;-75
2021/08/23 04:31:48;;;;;;;11.60;5.05;;;;;;;14.27;100.00;99177.91;4994735;28;20038;-75
2021/08/23 04:34:13;;;;;;;8.73;4.50;;;;;;;14.28;100.00;99177.00;4986690;28;20019;-75
2021/08/23 04:36:39;;;;;;;6.13;4.38;;;;;;;14.32;100.00;99173.41;4975682;28;20025;-75
2021/08/23 04:39:06;;;;;;;7.63;4.13;;;;;;;14.36;100.00;99190.69;4962360;28;20086;-73
2021/08/23 04:41:38;;;;;;;5.35;4.50;;;;;;;14.28;100.00;99185.66;4954676;29;20055;-72
2021/08/23 04:44:04;;;;;;;5.53;3.90;;;;;;;14.30;100.00;99190.84;4955943;28;20031;-72
2021/08/23 04:46:30;;;;;;;7.45;4.25;;;;;;;14.32;100.00;99184.69;4955749;28;20432;-73
2021/08/23 04:48:55;;;;;;;9.90;4.25;;;;;;;14.38;100.00;99191.50;4955745;28;20027;-73
2021/08/23 04:51:21;;;;;;;9.63;4.50;;;;;;;14.39;100.00;99185.38;4970511;28;20034;-73
2021/08/23 04:53:46;;;;;;;5.68;4.03;;;;;;;14.42;100.00;99193.13;4975090;28;20033;-72
2021/08/23 04:56:11;;;;;;;6.13;4.88;;;;;;;14.48;100.00;99195.59;4975055;28;20030;-73
2021/08/23 04:58:37;;;;;;;6.28;4.43;;;;;;;14.37;100.00;99197.63;4974957;28;20026;-73
2021/08/23 05:01:03;;;;;;;8.38;4.30;;;;;;;14.46;100.00;99202.59;4974837;28;20019;-73
2021/08/23 05:03:28;;;;;;;7.72;4.07;;;;;;;14.48;100.00;99195.59;4966691;28;20033;-72
2021/08/23 05:05:53;;;;;;;7.18;4.80;;;;;;;14.45;100.00;99195.63;4961714;28;20026;-77
2021/08/23 05:08:19;;;;;;;5.45;3.83;;;;;;;14.47;100.00;99199.06;4955448;28;20038;-77
2021/08/23 05:10:45;;;;;;;6.00;3.97;;;;;;;14.56;100.00;99198.88;4955315;28;20081;-77
2021/08/23 05:13:11;;;;;;;3.63;3.33;;;;;;;14.66;100.00;99194.25;4955231;28;20069;-77
2021/08/23 05:15:36;;;;;;;4.63;4.00;;;;;;;14.76;100.00;99200.91;4955374;28;20163;-77
2021/08/23 05:18:01;;;;;;;6.07;4.20;;;;;;;14.71;100.00;99196.72;4955192;28;20598;-77
2021/08/23 05:20:26;;;;;;;6.95;4.22;;;;;;;14.77;100.00;99196.53;4962712;28;20059;-77
2021/08/23 05:22:53;;;;;;;7.70;4.38;;;;;;;14.76;100.00;99192.22;4974430;28;20033;-77
2021/08/23 05:25:18;;;;;;;7.53;4.78;;;;;;;14.77;100.00;99204.38;4974516;28;20026;-77
2021/08/23 05:27:43;;;;;;;5.47;4.72;;;;;;;14.80;100.00;99193.88;4973948;28;20404;-77
2021/08/23 05:30:09;;;;;;;10.93;5.35;;;;;;;14.81;100.00;99203.41;4974476;28;20027;-77
2021/08/23 05:32:35;;;;;;;7.70;4.90;;;;;;;14.74;100.00;99201.84;4971406;28;20045;-77
2021/08/23 05:35:01;;;;;;;6.63;4.80;;;;;;;14.90;100.00;99192.69;4962838;28;20019;-77
2021/08/23 05:37:26;;;;;;;5.05;4.07;;;;;;;14.85;100.00;99199.81;4954842;28;20030;-77
2021/08/23 05:39:52;;;;;;;5.57;4.10;;;;;;;14.73;100.00;99201.00;4954826;28;20019;-77
2021/08/23 05:42:17;;;;;;;6.45;4.47;;;;;;;14.77;100.00;99206.97;4954525;28;20122;-77
2021/08/23 05:44:42;;;;;;;9.18;4.82;;;;;;;14.76;100.00;99207.88;4954855;28;20031;-77
2021/08/23 05:47:08;;;;;;;10.32;3.80;;;;;;;14.68;100.00;99217.66;4954656;28;20042;-77
2021/08/23 05:49:34;;;;;;;6.35;3.67;;;;;;;14.90;100.00;99216.19;4955326;28;20034;-77
2021/08/23 05:52:00;;;;;;;11.25;3.58;;;;;;;14.88;100.00;99212.75;4973748;28;20031;-77
2021/08/23 05:54:26;;;;;;;4.18;3.78;;;;;;;14.89;100.00;99211.84;4974013;28;20109;-75
2021/08/23 05:56:53;;;;;;;5.35;3.92;;;;;;;14.91;100.00;99210.06;4973269;28;20025;-74
2021/08/23 05:59:18;;;;;;;7.97;3.80;;;;;;;14.80;100.00;99217.34;4972458;28;20380;-74
2021/08/23 06:01:44;;;;;;;5.82;3.45;;;;;;;14.87;100.00;99211.03;4973606;28;20112;-74
2021/08/23 06:04:09;;;;;;;6.15;3.42;;;;;;;14.95;100.00;99216.06;4965592;28;20022;-74
2021/08/23 06:06:35;;;;;;;6.97;3.53;;;;;;;15.06;100.00;99213.97;4955465;28;20059;-75
2021/08/23 06:09:00;;;;;;;7.43;4.07;;;;;;;15.19;100.00;99214.47;4954281;28;20078;-74
2021/08/23 06:11:26;;;;;;;8.10;3.65;;;;;;;15.38;100.00;99210.41;4954204;28;20506;-75
2021/08/23 06:13:51;;;;;;;6.43;3.80;;;;;;;15.59;100.00;99209.75;4946073;28;20022;-75
2021/08/23 06:16:18;;;;;;;6.18;3.80;;;;;;;15.74;100.00;99204.97;4956562;28;20023;-75
2021/08/23 06:18:43;;;;;;;7.88;3.90;;;;;;;15.85;100.00;99205.47;4956838;28;20023;-76
2021/08/23 06:21:09;;;;;;;5.47;3.70;;;;;;;15.88;100.00;99205.38;4963490;28;20022;-77
2021/08/23 06:23:35;;;;;;;9.05;4.50;;;;;;;16.15;100.00;99204.47;4953778;28;20030;-77
2021/08/23 06:26:00;;;;;;;11.48;4.65;;;;;;;16.38;97.17;99205.41;4953444;28;20019;-73
2021/08/23 06:28:25;;;;;;;12.35;4.10;;;;;;;16.42;98.32;99201.78;4953853;28;20484;-73
2021/08/23 06:30:51;;;;;;;8.85;3.35;;;;;;;16.72;94.39;99199.88;4953743;28;20051;-73
2021/08/23 06:33:16;;;;;;;6.70;3.60;;;;;;;16.81;95.52;99199.53;4959911;28;20046;-73
2021/08/23 06:35:42;;;;;;;7.80;4.10;;;;;;;16.93;95.56;99204.34;4960980;28;20027;-83
2021/08/23 06:38:07;;;;;;;7.10;3.67;;;;;;;16.88;95.63;99200.19;4953620;28;20086;-83
2021/08/23 06:40:32;;;;;;;6.43;3.53;;;;;;;17.03;95.73;99198.78;4953762;29;20034;-83
2021/08/23 06:42:58;;;;;;;5.80;2.85;;;;;;;17.07;95.35;99201.22;4953079;29;20027;-83
2021/08/23 06:45:23;;;;;;;4.90;2.60;;;;;;;17.03;91.32;99199.63;4953865;28;20077;-83
2021/08/23 06:47:48;;;;;;;4.07;2.78;;;;;;;17.14;87.95;99197.44;4952710;28;20035;-83
2021/08/23 06:50:14;;;;;;;5.70;2.60;;;;;;;16.95;91.81;99202.50;4959653;28;20492;-83
2021/08/23 06:52:40;;;;;;;4.13;2.95;;;;;;;17.15;91.14;99199.16;4955470;28;20085;-76
2021/08/23 06:55:06;;;;;;;4.57;2.50;;;;;;;16.89;90.74;99200.13;4953570;28;20027;-75
2021/08/23 06:57:31;;;;;;;6.63;3.33;;;;;;;16.73;92.85;99204.22;4956881;28;20025;-75
2021/08/23 06:59:57;;;;;;;7.30;3.10;;;;;;;16.76;93.66;99211.09;4952665;28;20063;-75
2021/08/23 07:02:22;;;;;;;5.70;2.70;;;;;;;16.68;94.84;99209.59;4962352;28;20031;-77
2021/08/23 07:04:49;;;;;;;7.78;3.13;;;;;;;16.62;97.01;99203.72;4968300;28;20068;-73
2021/08/23 07:07:18;;;;;;;7.72;2.88;;;;;;;16.88;95.20;99208.06;4953567;28;20047;-73
2021/08/23 07:09:44;;;;;;;6.95;3.50;;;;;;;17.18;92.19;99206.91;4955658;28;20038;-74
2021/08/23 07:12:10;;;;;;;7.22;3.10;;;;;;;17.41;91.78;99207.78;4965879;28;20031;-74
2021/08/23 07:14:38;;;;;;;8.60;2.67;;;;;;;17.68;89.43;99208.44;4957389;28;20031;-73
2021/08/23 07:17:08;;;;;;;7.38;3.00;;;;;;;17.36;89.33;99209.72;4961886;28;20014;-72
2021/08/23 07:19:33;;;;;;;6.47;2.97;;;;;;;17.36;90.63;99215.81;4974864;28;20031;-73
2021/08/23 07:21:59;;;;;;;6.18;3.60;;;;;;;17.71;90.65;99209.19;4969534;28;20079;-72
2021/08/23 07:24:25;;;;;;;6.80;2.80;;;;;;;17.18;91.54;99209.50;4974367;28;20034;-73
2021/08/23 07:26:50;;;;;;;5.53;2.67;;;;;;;16.87;94.12;99214.16;4976427;28;20027;-73
2021/08/23 07:29:17;;;;;;;6.47;3.70;;;;;;;16.37;95.23;99219.41;4976175;28;20488;-73
2021/08/23 07:31:43;;;;;;;7.25;3.35;;;;;;;16.26;94.96;99213.72;4974522;28;20047;-73
2021/08/23 07:34:09;;;;;;;5.88;3.25;;;;;;;16.56;92.82;99215.25;4970998;28;20394;-73
2021/08/23 07:36:35;;;;;;;7.65;2.83;;;;;;;17.14;93.44;99207.91;4975353;28;20466;-73
2021/08/23 07:39:00;;;;;;;8.15;2.97;;;;;;;17.80;89.96;99212.41;4962571;28;20101;-73
2021/08/23 07:41:26;;;;;;;9.93;3.35;;;;;;;17.73;89.71;99204.75;4976054;28;20027;-73
2021/08/23 07:43:51;;;;;;;6.13;3.00;;;;;;;17.98;88.58;99206.38;4964941;28;20023;-73
2021/08/23 07:46:17;;;;;;;5.13;2.58;;;;;;;18.13;85.74;99205.78;4955964;28;20054;-73
2021/08/23 07:48:44;;;;;;;5.05;2.75;;;;;;;18.59;81.89;99202.94;4956750;28;20027;-71
2021/08/23 07:51:10;;;;;;;6.30;2.38;;;;;;;18.96;83.54;99205.66;4964305;28;20094;-72
2021/08/23 07:53:36;;;;;;;10.25;2.83;;;;;;;19.99;78.15;99206.91;4965589;28;20082;-72
2021/08/23 07:56:01;;;;;;;4.45;2.45;;;;;;;20.57;73.13;99202.28;4975310;28;20034;-72
2021/08/23 07:58:27;;;;;;;9.73;2.40;;;;;;;20.32;72.36;99203.53;4975529;28;20027;-73
2021/08/23 08:00:52;;;;;;;6.53;2.42;;;;;;;20.12;75.43;99207.16;4975869;28;20396;-83
2021/08/23 08:03:17;;;;;;;7.57;3.50;;;;;;;20.09;75.91;99207.31;4969066;28;20030;-83
2021/08/23 08:05:43;;;;;;;5.60;2.47;;;;;;;20.03;77.57;99207.63;4968032;28;20058;-76
2021/08/23 08:08:08;;;;;;;3.60;2.63;;;;;;;19.24;80.95;99212.25;4974616;28;20042;-73
2021/08/23 08:10:38;;;;;;;5.47;2.58;;;;;;;18.98;82.51;99206.44;4975667;28;20032;-73
2021/08/23 08:13:08;;;;;;;5.47;2.67;;;;;;;19.05;81.13;99212.28;4974257;28;20015;-77
2021/08/23 08:15:34;;;;;;;10.20;7.28;;;;;;;18.81;81.03;99213.34;4966063;28;20076;-75
2021/08/23 08:18:00;;;;;;;15.57;10.15;;;;;;;18.46;84.29;99213.09;4975460;28;20435;-77
2021/08/23 08:20:26;;;;;;;5.82;3.50;;;;;;;18.34;85.63;99218.88;4974025;28;20053;-75
2021/08/23 08:22:51;;;;;;;6.55;3.22;;;;;;;18.08;85.40;99218.19;4956348;28;20461;-75
2021/08/23 08:25:17;;;;;;;4.45;3.08;;;;;;;17.81;88.48;99219.34;4955498;28;20059;-75
2021/08/23 08:27:42;;;;;;;12.02;5.78;;;;;;;17.57;89.46;99219.38;4955741;28;20027;-75
2021/08/23 08:30:10;;;;;;;13.27;4.60;;;;;;;17.49;91.39;99224.03;4955390;29;20031;-75
2021/08/23 08:32:35;;;;;;;6.70;3.10;;;;;;;17.46;92.73;99232.91;4961611;28;20049;-75
2021/08/23 08:35:01;;;;;;;5.00;3.20;;;;;;;17.47;92.02;99225.88;4963825;28;20472;-75
2021/08/23 08:37:27;;;;;;;5.40;3.00;;;;;;;17.63;89.95;99234.00;4954602;29;20029;-75
2021/08/23 08:39:52;;;;;;;5.85;3.50;;;;;;;17.29;91.37;99234.44;4955807;28;20050;-75
2021/08/23 08:42:18;;;;;;;6.07;3.15;;;;;;;17.90;89.45;99229.47;4954715;28;20037;-75
2021/08/23 08:44:45;;;;;;;5.63;3.03;;;;;;;17.87;90.29;99235.66;4955739;28;20057;-75
2021/08/23 08:47:16;;;;;;;8.13;3.67;;;;;;;18.05;88.82;99236.69;4955721;28;20030;-75
2021/08/23 08:49:41;;;;;;;7.93;3.33;;;;;;;18.28;89.82;99234.91;4957164;28;20816;-75
2021/08/23 08:52:09;;;;;;;6.00;3.30;;;;;;;18.55;87.62;99236.31;4961655;28;20023;-75
2021/08/23 08:54:34;;;;;;;8.07;4.20;;;;;;;18.38;86.69;99241.47;4971454;28;20063;-75
2021/08/23 08:57:01;;;;;;;7.15;3.03;;;;;;;18.70;87.60;99238.31;4971909;28;20480;-75
2021/08/23 08:59:27;;;;;;;6.55;2.92;;;;;;;19.14;81.05;99232.84;4974801;28;20113;-75
2021/08/23 09:01:53;;;;;;;5.85;3.47;;;;;;;19.23;82.56;99237.69;4965460;28;20109;-74
2021/08/23 09:04:29;;;;;;;5.07;2.88;;;;;;;19.31;81.15;99239.13;4963427;28;20556;-74
2021/08/23 09:06:57;;;;;;;10.02;3.70;;;;;;;19.33;78.05;99238.09;4966189;28;20557;-73
2021/08/23 09:09:23;;;;;;;10.68;2.95;;;;;;;19.57;79.21;99235.25;4966444;28;20046;-75
2021/08/23 09:12:05;;;;;;;6.13;3.08;;;;;;;19.72;77.95;99242.44;4968388;28;20027;-74
2021/08/23 09:14:32;;;;;;;4.00;2.58;;;;;;;19.93;74.44;99244.06;4971604;28;20061;-74
2021/08/23 09:17:09;;;;;;;6.43;2.83;;;;;;;20.02;77.72;99246.25;4971820;28;20018;-74
2021/08/23 09:19:36;;;;;;;16.13;9.75;;;;;;;20.35;75.86;99239.34;4956559;28;20027;-76
2021/08/23 09:22:05;;;;;;;5.88;3.40;;;;;;;20.55;76.96;99247.16;4961895;28;20051;-72
2021/08/23 09:24:33;;;;;;;10.93;3.25;;;;;;;20.76;75.27;99242.53;4954996;28;20111;-76
2021/08/23 09:27:06;;;;;;;5.40;2.50;;;;;;;22.00;68.18;99234.00;4954708;28;20027;-76
2021/08/23 09:29:36;;;;;;;6.47;2.97;;;;;;;21.49;68.91;99246.53;4954104;28;20031;-72
2021/08/23 09:32:01;;;;;;;4.85;2.78;;;;;;;24.05;62.71;99245.19;4958423;28;20139;-73
2021/08/23 09:34:27;;;;;;;7.35;2.45;;;;;;;25.25;55.04;99243.22;4964647;28;20094;-72
2021/08/23 09:36:57;;;;;;;4.43;2.10;;;;;;;25.98;53.99;99236.22;4954595;28;20019;-72
2021/08/23 09:39:26;;;;;;;5.15;2.10;;;;;;;26.18;52.41;99240.91;4956527;28;20023;-72
2021/08/23 09:42:03;;;;;;;6.50;2.63;;;;;;;25.49;54.01;99234.47;4954220;28;20123;-73
2021/08/23 09:44:34;;;;;;;7.47;2.60;;;;;;;24.42;55.52;99237.50;4954608;28;20032;-72
2021/08/23 09:46:59;;;;;;;7.30;2.22;;;;;;;24.69;55.97;99234.75;4954671;28;20019;-73
2021/08/23 09:49:40;;;;;;;10.85;2.63;;;;;;;23.63;60.49;99235.56;4954413;28;20027;-72
2021/08/23 09:52:06;;;;;;;6.30;2.70;;;;;;;23.23;61.74;99240.75;4959886;28;20033;-73
2021/08/23 09:54:33;;;;;;;8.65;2.53;;;;;;;21.94;67.04;99246.66;4954290;28;20455;-72
2021/08/23 09:56:58;;;;;;;5.22;2.10;;;;;;;21.30;69.02;99246.69;4954400;28;20049;-72
2021/08/23 09:59:28;;;;;;;7.85;2.53;;;;;;;19.62;75.05;99243.81;4952895;28;20035;-72
2021/08/23 10:01:58;;;;;;;6.20;2.40;;;;;;;19.48;74.79;99247.91;4957288;28;20018;-72
2021/08/23 10:04:24;;;;;;;8.48;2.53;;;;;;;18.56;80.47;99258.16;4964171;28;20025;-72
2021/08/23 10:06:52;;;;;;;7.55;2.95;;;;;;;18.43;81.06;99256.09;4955485;28;20045;-72
2021/08/23 10:09:23;;;;;;;5.40;2.42;;;;;;;18.28;83.06;99250.63;4957970;28;20094;-72
2021/08/23 10:11:51;;;;;;;8.82;3.25;;;;;;;18.46;80.41;99244.59;4973295;28;20514;-73
2021/08/23 10:14:16;;;;;;;8.63;4.60;;;;;;;19.21;79.32;99250.03;4972583;28;20026;-72
2021/08/23 10:16:42;;;;;;;6.40;2.50;;;;;;;19.52;76.53;99248.63;4973400;28;20027;-72
2021/08/23 10:19:09;;;;;;;10.65;3.05;;;;;;;18.91;80.31;99243.56;4973322;28;20038;-72
2021/08/23 10:21:36;;;;;;;4.82;2.70;;;;;;;18.94;79.08;99235.53;4964437;28;20428;-72
2021/08/23 10:24:03;;;;;;;4.13;2.28;;;;;;;20.43;72.52;99237.19;4954032;28;20503;-72
2021/08/23 10:26:40;;;;;;;6.05;1.92;;;;;;;21.07;70.40;99236.50;4964538;28;20031;-72
2021/08/23 10:29:08;;;;;;;4.47;2.45;;;;;;;21.90;66.06;99234.56;4986166;23;20038;-72
2021/08/23 10:31:35;;;;;;;5.25;2.30;;;;;;;20.99;67.91;99233.44;4969779;28;20487;-73
2021/08/23 10:34:16;;;;;;;6.78;2.20;;;;;;;21.29;68.96;99231.78;4971425;28;20022;-73
2021/08/23 10:36:43;;;;;;;3.63;2.10;;;;;;;21.59;66.89;99231.03;4961340;28;20024;-73
2021/08/23 10:39:09;;;;;;;1.70;1.52;;;;;;;21.55;64.45;99232.16;4943912;29;20035;-73
2021/08/23 10:41:35;;;;;;;4.00;1.98;;;;;;;21.93;63.92;99234.41;4934575;29;20127;-73
2021/08/23 10:44:04;;;;;;;5.75;2.28;;;;;;;22.10;64.05;99226.41;4934498;29;20067;-73
2021/08/23 10:46:35;;;;;;;1.87;1.50;;;;;;;23.25;61.11;99225.63;4934373;29;20613;-73
2021/08/23 10:49:12;;;;;;;2.00;1.83;;;;;;;23.38;60.75;99227.50;4938025;28;20027;-73
2021/08/23 10:51:40;;;;;;;1.85;1.33;;;;;;;23.19;59.87;99227.81;4943921;29;20128;-75
2021/08/23 10:54:36;;;;;;;6.30;1.95;;;;;;;24.18;59.63;99229.34;4939910;29;20038;-76
2021/08/23 10:57:01;;;;;;;6.55;3.70;;;;;;;25.70;53.20;99211.66;4940238;29;20039;-76
2021/08/23 10:59:37;;;;;;;5.93;2.03;;;;;;;27.06;50.76;99214.63;4943253;28;20035;-76
2021/08/23 11:02:03;;;;;;;2.60;1.60;;;;;;;26.52;50.30;99217.13;4944549;29;20290;-76
2021/08/23 11:04:30;;;;;;;1.23;1.10;;;;;;;25.72;50.17;99220.34;4943059;28;20036;-76
2021/08/23 11:06:55;;;;;;;2.63;1.60;;;;;;;23.97;56.01;99230.75;4943088;29;20027;-76
2021/08/23 11:09:33;;;;;;;3.25;1.70;;;;;;;23.87;56.99;99229.66;4941289;28;20173;-76
2021/08/23 11:12:16;;;;;;;2.92;1.83;;;;;;;23.61;57.43;99218.94;4942084;29;20519;-76
2021/08/23 11:14:51;;;;;;;2.33;1.85;;;;;;;23.74;57.27;99219.91;4942899;29;20042;-76
2021/08/23 11:17:29;;;;;;;2.92;1.77;;;;;;;22.97;58.42;99228.31;4943478;29;20026;-76
2021/08/23 11:19:56;;;;;;;2.63;1.73;;;;;;;22.99;60.63;99227.25;4935133;28;20058;-76
2021/08/23 11:22:21;;;;;;;2.42;1.75;;;;;;;23.46;60.49;99222.59;4930548;29;20515;-76
2021/08/23 11:24:47;;;;;;;2.15;1.70;;;;;;;23.10;60.07;99223.94;4931600;28;20804;-76
2021/08/23 11:27:13;;;;;;;2.90;1.75;;;;;;;21.28;63.19;99232.72;4931310;29;20381;-75
2021/08/23 11:29:51;;;;;;;13.48;8.15;;;;;;;22.77;61.27;99217.13;4925043;28;20036;-75
2021/08/23 11:32:16;;;;;;;4.30;2.42;;;;;;;25.25;53.33;99214.06;4922463;29;21119;-76
2021/08/23 11:34:48;;;;;;;2.90;1.60;;;;;;;27.40;46.21;99211.97;4920525;28;20511;-75
2021/08/23 11:37:13;;;;;;;3.03;1.60;;;;;;;27.64;44.76;99203.81;4921292;28;20027;-75
2021/08/23 11:39:39;;;;;;;4.00;1.40;;;;;;;28.48;44.16;99207.50;4913827;28;20054;-76
2021/08/23 11:42:06;;;;;;;1.67;1.30;;;;;;;29.27;42.92;99191.75;4912299;29;20073;-76
2021/08/23 11:44:33;;;;;;;2.15;1.23;;;;;;;27.83;46.41;99198.69;4912070;29;20031;-76
2021/08/23 11:47:02;;;;;;;1.60;1.30;;;;;;;27.97;45.22;99207.38;4914492;29;20054;-76
2021/08/23 11:49:33;;;;;;;2.42;1.60;;;;;;;23.06;56.04;99211.84;4922055;28;20027;-76
2021/08/23 11:52:09;;;;;;;3.00;1.92;;;;;;;22.74;60.06;99206.75;4928461;29;20031;-76
2021/08/23 11:54:34;;;;;;;2.17;1.60;;;;;;;22.29;61.56;99200.66;4929317;28;20614;-76
2021/08/23 11:57:07;;;;;;;7.70;1.83;;;;;;;21.54;62.94;99198.81;4930997;29;20051;-76
2021/08/23 11:59:32;;;;;;;2.17;1.95;;;;;;;20.80;65.73;99199.31;4937580;28;20031;-76
2021/08/23 12:02:09;;;;;;;2.38;1.40;;;;;;;20.63;68.77;99197.56;4941488;29;20031;-76
2021/08/23 12:04:35;;;;;;;1.80;1.55;;;;;;;21.58;64.16;99204.78;4940281;28;20055;-76
2021/08/23 12:07:00;;;;;;;6.32;1.90;;;;;;;21.47;62.21;99202.75;4955374;28;20027;-76
2021/08/23 12:09:25;;;;;;;2.03;1.40;;;;;;;22.50;61.84;99195.03;4945934;28;20035;-76
2021/08/23 12:11:51;;;;;;;1.88;1.50;;;;;;;22.03;61.77;99193.34;4947476;29;20094;-76
2021/08/23 12:14:21;;;;;;;2.80;2.05;;;;;;;23.46;58.75;99193.50;4947823;29;20031;-76
2021/08/23 12:16:48;;;;;;;3.15;1.88;;;;;;;23.98;57.63;99195.38;4947881;29;20086;-76
2021/08/23 12:19:14;;;;;;;2.65;1.83;;;;;;;23.82;55.48;99188.47;4947768;28;20036;-76
2021/08/23 12:21:41;;;;;;;3.15;1.50;;;;;;;24.48;57.05;99188.53;4946652;29;20041;-76
2021/08/23 12:24:21;;;;;;;9.85;2.53;;;;;;;24.12;60.75;99176.78;4947580;29;20030;-76
2021/08/23 12:26:59;;;;;;;2.03;1.45;;;;;;;24.72;57.48;99176.22;4947519;29;20037;-76
2021/08/23 12:29:34;;;;;;;1.73;1.52;;;;;;;25.09;51.33;99179.81;4947475;28;20035;-76
2021/08/23 12:32:10;;;;;;;2.42;1.55;;;;;;;23.14;58.96;99177.88;4943959;29;20031;-76
2021/08/23 12:34:40;;;;;;;2.72;1.80;;;;;;;21.50;60.57;99189.38;4944496;29;20035;-76
2021/08/23 12:37:05;;;;;;;;;;;;;;;21.78;60.99;99186.88;4945989;29;20035;-76
2021/08/23 12:39:31;;;;;;;2.55;1.80;;;;;;;22.03;61.64;99182.81;4947335;28;19918;-76
2021/08/23 12:41:58;;;;;;;4.25;2.30;;;;;;;23.19;56.50;99181.06;4946979;29;20110;-76
2021/08/23 12:44:24;;;;;;;3.22;1.85;;;;;;;23.47;58.36;99184.59;4947697;29;20039;-74
2021/08/23 12:46:50;;;;;;;5.72;1.95;;;;;;;23.74;58.04;99182.84;4948357;28;20023;-74
2021/08/23 12:49:16;;;;;;;1.60;1.45;;;;;;;23.33;59.00;99186.31;4948543;28;20460;-74
2021/08/23 12:51:43;;;;;;;3.42;1.92;;;;;;;23.00;57.52;99181.38;4947670;29;20022;-73
2021/08/23 12:54:09;;;;;;;1.92;1.50;;;;;;;22.99;57.11;99173.53;4960965;28;20238;-73
2021/08/23 12:56:38;;;;;;;1.95;1.75;;;;;;;23.39;57.31;99171.00;4946152;29;20039;-74
2021/08/23 12:59:04;;;;;;;2.37;1.90;;;;;;;23.36;55.91;99169.44;4943704;28;20138;-73
2021/08/23 13:01:31;;;;;;;3.85;1.90;;;;;;;23.46;58.31;99169.69;4960719;28;20069;-73
2021/08/23 13:03:57;;;;;;;2.35;1.52;;;;;;;23.22;55.79;99169.47;4948949;28;20046;-73
2021/08/23 13:06:22;;;;;;;5.75;2.05;;;;;;;23.55;59.00;99171.72;4948198;28;20106;-73
2021/08/23 13:08:48;;;;;;;1.52;1.42;;;;;;;23.98;56.03;99158.31;4947520;28;20081;-73
2021/08/23 13:11:14;;;;;;;1.92;1.70;;;;;;;23.66;57.23;99169.25;4947873;28;20049;-73
2021/08/23 13:13:40;;;;;;;3.20;1.58;;;;;;;23.94;58.39;99167.44;4948157;29;20034;-74
2021/08/23 13:16:07;;;;;;;2.67;2.00;;;;;;;23.52;56.74;99167.47;4948272;29;20039;-74
2021/08/23 13:18:33;;;;;;;3.45;1.80;;;;;;;22.30;61.44;99169.81;4957638;28;20279;-73
2021/08/23 13:20:59;;;;;;;2.13;1.63;;;;;;;21.21;64.40;99173.34;4959954;28;20416;-74
2021/08/23 13:23:25;;;;;;;3.15;1.85;;;;;;;21.38;65.56;99175.09;4944601;29;20027;-73
2021/08/23 13:25:50;;;;;;;2.67;1.95;;;;;;;20.75;64.38;99175.00;4948280;29;20035;-74
2021/08/23 13:28:16;;;;;;;3.05;1.52;;;;;;;20.29;66.25;99180.84;4948031;28;20035;-74
2021/08/23 13:30:41;;;;;;;1.77;1.63;;;;;;;20.59;67.32;99174.09;4946402;29;20055;-74
2021/08/23 13:33:08;;;;;;;2.17;1.98;;;;;;;20.38;67.37;99165.50;4946728;29;20026;-73
2021/08/23 13:35:41;;;;;;;3.00;2.00;;;;;;;20.88;64.63;99164.66;4947791;28;20031;-74
2021/08/23 13:38:09;;;;;;;5.30;2.17;;;;;;;20.31;67.99;99174.63;4948070;28;20527;-74
2021/08/23 13:40:37;;;;;;;3.33;1.75;;;;;;;21.36;63.00;99160.28;4947342;29;20035;-74
2021/08/23 13:43:07;;;;;;;2.88;1.80;;;;;;;21.16;62.32;99162.22;4943909;29;20031;-73
2021/08/23 13:45:36;;;;;;;3.65;2.10;;;;;;;21.32;63.02;99164.03;4948802;29;20045;-74
2021/08/23 13:48:01;;;;;;;6.38;2.28;;;;;;;22.14;60.40;99159.28;4948275;28;20038;-74
2021/08/23 13:50:26;;;;;;;2.72;1.50;;;;;;;22.61;59.48;99147.66;4948332;29;20452;-74
2021/08/23 13:52:52;;;;;;;2.38;1.88;;;;;;;22.35;59.89;99164.25;4946271;29;20122;-73
2021/08/23 13:55:17;;;;;;;2.35;1.75;;;;;;;22.83;57.33;99153.34;4948688;28;20078;-73
2021/08/23 13:57:43;;;;;;;1.92;1.50;;;;;;;23.07;56.67;99156.25;4948036;29;20031;-73
2021/08/23 14:00:08;;;;;;;2.15;1.90;;;;;;;22.71;57.27;99154.06;4948686;28;20027;-73
2021/08/23 14:02:34;;;;;;;1.75;1.60;;;;;;;22.39;58.08;99158.69;4948696;29;20098;-73
2021/08/23 14:04:59;;;;;;;2.50;1.88;;;;;;;22.56;58.20;99160.31;4947882;28;20046;-73
2021/08/23 14:07:24;;;;;;;2.50;2.30;;;;;;;22.68;57.89;99159.56;4947384;28;20026;-75
2021/08/23 14:09:50;;;;;;;2.28;1.75;;;;;;;23.04;58.25;99150.31;4946794;28;20031;-74
2021/08/23 14:12:15;;;;;;;2.83;1.75;;;;;;;23.20;54.94;99145.72;4947340;29;20027;-73
2021/08/23 14:14:41;;;;;;;7.88;5.70;;;;;;;23.30;53.89;99146.84;4945865;29;20031;-73
2021/08/23 14:17:09;;;;;;;2.67;2.05;;;;;;;22.46;55.74;99143.31;4946870;29;20038;-73
2021/08/23 14:19:36;;;;;;;2.55;1.65;;;;;;;22.41;56.80;99145.41;4947268;28;20063;-73
2021/08/23 14:22:03;;;;;;;4.78;2.10;;;;;;;22.99;56.81;99142.66;4948688;29;20186;-74
2021/08/23 14:24:28;;;;;;;3.10;2.03;;;;;;;22.16;57.73;99141.59;4949458;29;20031;-73
2021/08/23 14:26:54;;;;;;;2.10;1.90;;;;;;;22.31;58.64;99151.22;4949372;29;20019;-73
2021/08/23 14:29:20;;;;;;;2.78;2.10;;;;;;;22.56;56.83;99144.47;4962404;28;20400;-74
2021/08/23 14:31:46;;;;;;;3.00;2.30;;;;;;;22.60;58.16;99140.69;4947168;29;20034;-74
2021/08/23 14:34:11;;;;;;;2.28;1.88;;;;;;;21.49;58.28;99150.75;4948446;29;20423;-73
2021/08/23 14:36:37;;;;;;;4.15;2.28;;;;;;;21.52;59.44;99145.31;4947670;29;20027;-73
2021/08/23 14:39:03;;;;;;;2.97;1.92;;;;;;;22.49;58.22;99143.16;4947977;28;20518;-74
2021/08/23 14:41:29;;;;;;;6.38;2.13;;;;;;;22.54;56.56;99141.06;4949182;29;20034;-74
2021/08/23 14:43:55;;;;;;;2.53;1.90;;;;;;;22.95;55.60;99140.31;4947052;28;20034;-75
2021/08/23 14:46:20;;;;;;;2.60;2.10;;;;;;;23.08;55.47;99141.25;4947163;29;20058;-74
2021/08/23 14:48:46;;;;;;;3.60;2.83;;;;;;;23.07;54.43;99147.50;4945239;28;20110;-73
2021/08/23 14:51:11;;;;;;;8.80;4.78;;;;;;;23.15;53.49;99147.81;4957766;28;20066;-73
2021/08/23 14:53:38;;;;;;;4.18;3.00;;;;;;;23.44;54.67;99145.09;4946571;29;20023;-73
2021/08/23 14:56:04;;;;;;;2.20;2.00;;;;;;;23.62;52.75;99145.72;4941641;29;20023;-75
2021/08/23 14:58:29;;;;;;;3.50;1.73;;;;;;;23.53;54.19;99144.50;4946323;28;20038;-73
2021/08/23 15:00:57;;;;;;;3.65;2.78;;;;;;;23.25;53.83;99143.66;4944632;29;20039;-75
2021/08/23 15:03:22;;;;;;;1.73;1.63;;;;;;;22.98;54.43;99145.41;4944752;29;20125;-73
2021/08/23 15:05:48;;;;;;;3.90;1.98;;;;;;;22.98;54.30;99148.06;4945519;29;20544;-73
2021/08/23 15:08:14;;;;;;;4.85;3.35;;;;;;;22.53;56.02;99147.28;4945280;28;20568;-73
2021/08/23 15:10:39;;;;;;;4.53;2.00;;;;;;;22.29;57.19;99153.13;4945556;28;20023;-75
2021/08/23 15:13:05;;;;;;;4.53;2.28;;;;;;;22.74;57.15;99153.91;4945874;29;20038;-75
2021/08/23 15:15:30;;;;;;;5.63;2.22;;;;;;;21.72;58.29;99152.94;4941978;28;20031;-73
2021/08/23 15:17:56;;;;;;;2.53;1.95;;;;;;;21.79;59.03;99151.63;4943621;29;20055;-73
2021/08/23 15:20:22;;;;;;;4.40;2.35;;;;;;;21.78;59.64;99151.72;4943223;29;20039;-73
2021/08/23 15:22:48;;;;;;;2.85;2.15;;;;;;;21.24;59.98;99154.75;4944422;29;20031;-73
2021/08/23 15:25:14;;;;;;;3.50;2.10;;;;;;;21.30;58.73;99151.78;4944736;29;20408;-75
2021/08/23 15:27:39;;;;;;;3.47;2.25;;;;;;;21.32;60.59;99162.22;4959387;28;20034;-73
2021/08/23 15:30:06;;;;;;;2.50;2.00;;;;;;;21.41;60.27;99156.44;4945517;28;20170;-74
2021/08/23 15:32:32;;;;;;;2.95;2.05;;;;;;;21.67;60.13;99165.53;4948584;29;20027;-73
2021/08/23 15:34:57;;;;;;;3.33;2.58;;;;;;;21.30;59.81;99162.31;4947116;29;20432;-73
2021/08/23 15:37:23;;;;;;;2.03;1.90;;;;;;;21.28;61.24;99168.59;4947605;29;20020;-73
2021/08/23 15:39:51;;;;;;;13.48;10.90;;;;;;;21.07;63.11;99164.50;4947013;28;20082;-73
2021/08/23 15:42:17;;;;;;;6.03;2.80;;;;;;;20.58;65.07;99173.25;4946968;29;20151;-76
2021/08/23 15:44:43;;;;;;;4.28;2.72;;;;;;;20.35;66.90;99176.19;4949680;28;20027;-76
2021/08/23 15:47:08;;;;;;;4.43;2.83;;;;;;;20.29;66.68;99180.00;4949016;29;20039;-73